createdAt,value
2023-03-02T00:00:57.740Z,39.800
2023-03-02T00:01:58.391Z,39.000
2023-03-02T00:02:58.394Z,37.200
2023-03-02T00:03:58.362Z,37.000
2023-03-02T00:04:58.077Z,34.900
2023-03-02T00:05:57.677Z,36.300
2023-03-02T00:06:58.298Z,37.900
2023-03-02T00:07:57.965Z,35.000
2023-03-02T00:08:57.598Z,37.900
2023-03-02T00:09:58.345Z,38.400
2023-03-02T00:10:57.994Z,37.400
2023-03-02T00:11:57.645Z,37.600
2023-03-02T00:12:58.247Z,37.100
2023-03-02T00:13:57.927Z,37.500
2023-03-02T00:14:57.667Z,36.200
2023-03-02T00:15:58.505Z,39.700
2023-03-02T00:16:58.360Z,37.600
2023-03-02T00:17:57.931Z,37.300
2023-03-02T00:18:57.519Z,38.700
2023-03-02T00:19:58.221Z,39.200
2023-03-02T00:20:57.856Z,40.100
2023-03-02T00:21:58.473Z,39.000
2023-03-02T00:22:58.053Z,38.800
2023-03-02T00:23:57.675Z,40.800
2023-03-02T00:24:58.351Z,40.600
2023-03-02T00:25:57.973Z,39.400
2023-03-02T00:26:57.611Z,39.500
2023-03-02T00:27:58.198Z,40.600
2023-03-02T00:28:57.861Z,39.200
2023-03-02T00:29:58.487Z,39.600
2023-03-02T00:30:58.296Z,41.200
2023-03-02T00:31:58.202Z,41.100
2023-03-02T00:32:57.921Z,41.700
2023-03-02T00:33:57.650Z,41.500
2023-03-02T00:34:58.322Z,41.800
2023-03-02T00:35:58.186Z,41.100
2023-03-02T00:36:58.943Z,45.000
2023-03-02T00:37:57.557Z,41.200
2023-03-02T00:38:58.232Z,42.200
2023-03-02T00:39:57.941Z,43.100
2023-03-02T00:40:57.892Z,41.400
2023-03-02T00:41:58.558Z,43.200
2023-03-02T00:42:58.220Z,40.900
2023-03-02T00:43:57.800Z,41.200
2023-03-02T00:44:58.473Z,41.100
2023-03-02T00:45:58.156Z,44.000
2023-03-02T00:46:58.165Z,41.500
2023-03-02T00:47:59.380Z,43.000
2023-03-02T00:48:58.016Z,40.900
2023-03-02T00:49:57.704Z,42.800
2023-03-02T00:50:58.353Z,39.900
2023-03-02T00:51:58.061Z,40.200
2023-03-02T00:52:57.690Z,42.300
2023-03-02T00:53:58.309Z,40.900
2023-03-02T00:54:58.004Z,38.500
2023-03-02T00:55:57.659Z,40.200
2023-03-02T00:56:57.573Z,36.900
2023-03-02T00:57:58.158Z,37.800
2023-03-02T00:58:57.802Z,37.000
2023-03-02T00:59:58.456Z,37.600
2023-03-02T01:00:58.125Z,39.200
2023-03-02T01:01:58.009Z,37.700
2023-03-02T01:02:58.171Z,37.600
2023-03-02T01:03:57.917Z,36.800
2023-03-02T01:04:57.644Z,36.900
2023-03-02T01:05:58.265Z,34.300
2023-03-02T01:06:57.889Z,35.300
2023-03-02T01:07:57.575Z,33.800
2023-03-02T01:08:58.241Z,32.900
2023-03-02T01:09:57.945Z,34.600
2023-03-02T01:10:57.560Z,33.300
2023-03-02T01:11:58.161Z,33.100
2023-03-02T01:12:57.805Z,33.300
2023-03-02T01:13:58.471Z,34.500
2023-03-02T01:14:58.139Z,35.800
2023-03-02T01:15:57.842Z,35.600
2023-03-02T01:16:58.556Z,35.200
2023-03-02T01:17:58.149Z,34.400
2023-03-02T01:18:57.886Z,32.100
2023-03-02T01:19:57.560Z,32.200
2023-03-02T01:20:58.252Z,32.800
2023-03-02T01:21:57.881Z,34.300
2023-03-02T01:22:58.464Z,34.000
2023-03-02T01:23:58.147Z,35.300
2023-03-02T01:24:57.769Z,34.800
2023-03-02T01:25:58.360Z,35.200
2023-03-02T01:26:57.978Z,35.500
2023-03-02T01:27:57.658Z,35.100
2023-03-02T01:28:58.228Z,35.700
2023-03-02T01:29:57.953Z,36.400
2023-03-02T01:30:57.633Z,38.000
2023-03-02T01:31:58.560Z,37.500
2023-03-02T01:32:58.396Z,36.700
2023-03-02T01:33:58.122Z,37.300
2023-03-02T01:34:57.789Z,38.200
2023-03-02T01:35:58.732Z,37.800
2023-03-02T01:36:58.286Z,38.300
2023-03-02T01:37:57.944Z,38.900
2023-03-02T01:38:57.854Z,39.000
2023-03-02T01:39:58.535Z,40.000
2023-03-02T01:40:58.303Z,43.600
2023-03-02T01:41:58.055Z,43.500
2023-03-02T01:42:57.699Z,41.700
2023-03-02T01:43:58.279Z,37.800
2023-03-02T01:44:57.986Z,38.800
2023-03-02T01:45:57.934Z,38.400
2023-03-02T01:46:57.673Z,39.900
2023-03-02T01:47:58.259Z,40.300
2023-03-02T01:48:57.917Z,39.300
2023-03-02T01:49:57.518Z,38.000
2023-03-02T01:50:58.134Z,36.700
2023-03-02T01:51:57.766Z,36.800
2023-03-02T01:52:58.450Z,36.800
2023-03-02T01:53:58.102Z,36.400
2023-03-02T01:54:57.709Z,36.000
2023-03-02T01:55:58.375Z,36.800
2023-03-02T01:56:57.986Z,39.400
2023-03-02T01:57:57.634Z,38.400
2023-03-02T01:58:58.448Z,37.100
2023-03-02T01:59:58.075Z,36.000
2023-03-02T02:00:57.956Z,37.500
2023-03-02T02:01:57.749Z,37.400
2023-03-02T02:02:58.357Z,36.100
2023-03-02T02:03:58.172Z,37.200
2023-03-02T02:04:57.845Z,37.000
2023-03-02T02:05:58.536Z,35.800
2023-03-02T02:07:57.792Z,39.300
2023-03-02T02:08:58.681Z,39.000
2023-03-02T02:09:58.319Z,39.500
2023-03-02T02:10:58.015Z,37.800
2023-03-02T02:11:57.705Z,35.700
2023-03-02T02:12:58.352Z,36.400
2023-03-02T02:14:57.680Z,38.800
2023-03-02T02:15:58.383Z,37.900
2023-03-02T02:16:58.472Z,36.600
2023-03-02T02:17:58.181Z,37.400
2023-03-02T02:19:58.492Z,37.300
2023-03-02T02:20:58.121Z,36.100
2023-03-02T02:21:57.729Z,35.500
2023-03-02T02:22:58.361Z,35.100
2023-03-02T02:24:57.758Z,38.500
2023-03-02T02:25:58.393Z,37.500
2023-03-02T02:26:58.014Z,34.800
2023-03-02T02:27:57.736Z,36.400
2023-03-02T02:28:58.402Z,37.200
2023-03-02T02:29:58.068Z,36.300
2023-03-02T02:30:57.755Z,39.500
2023-03-02T02:32:58.812Z,38.400
2023-03-02T02:33:58.557Z,38.300
2023-03-02T02:34:58.570Z,36.200
2023-03-02T02:35:58.525Z,39.400
2023-03-02T02:36:58.363Z,39.000
2023-03-02T02:37:58.067Z,39.100
2023-03-02T02:38:57.700Z,39.300
2023-03-02T02:39:58.347Z,39.200
2023-03-02T02:40:58.036Z,38.900
2023-03-02T02:41:57.800Z,39.900
2023-03-02T02:42:58.549Z,37.500
2023-03-02T02:43:58.250Z,36.700
2023-03-02T02:44:58.044Z,36.100
2023-03-02T02:45:58.179Z,37.500
2023-03-02T02:46:57.934Z,38.600
2023-03-02T02:47:57.618Z,37.500
2023-03-02T02:48:58.229Z,37.300
2023-03-02T02:49:57.984Z,39.300
2023-03-02T02:50:57.649Z,38.500
2023-03-02T02:51:58.278Z,37.900
2023-03-02T02:52:58.081Z,38.700
2023-03-02T02:53:57.773Z,36.900
2023-03-02T02:54:58.436Z,38.500
2023-03-02T02:55:58.020Z,37.400
2023-03-02T02:56:57.665Z,36.400
2023-03-02T02:57:58.278Z,39.100
2023-03-02T02:58:57.861Z,38.900
2023-03-02T02:59:57.525Z,36.900
2023-03-02T03:00:58.326Z,40.100
2023-03-02T03:01:58.188Z,37.000
2023-03-02T03:02:57.963Z,37.000
2023-03-02T03:03:57.672Z,37.200
2023-03-02T03:04:58.603Z,36.500
2023-03-02T03:06:58.261Z,37.500
2023-03-02T03:07:57.926Z,35.300
2023-03-02T03:08:57.515Z,36.500
2023-03-02T03:09:58.451Z,37.200
2023-03-02T03:11:58.052Z,35.600
2023-03-02T03:12:57.832Z,37.700
2023-03-02T03:13:58.440Z,36.300
2023-03-02T03:14:58.074Z,35.400
2023-03-02T03:16:58.767Z,35.300
2023-03-02T03:17:58.503Z,37.400
2023-03-02T03:18:58.253Z,34.000
2023-03-02T03:19:57.918Z,34.000
2023-03-02T03:20:57.570Z,34.800
2023-03-02T03:21:58.357Z,34.300
2023-03-02T03:22:58.119Z,34.600
2023-03-02T03:23:57.929Z,33.300
2023-03-02T03:24:57.572Z,35.200
2023-03-02T03:26:58.317Z,33.200
2023-03-02T03:27:58.321Z,35.900
2023-03-02T03:28:57.937Z,34.600
2023-03-02T03:29:57.577Z,33.400
2023-03-02T03:31:58.423Z,33.300
2023-03-02T03:33:58.348Z,33.300
2023-03-02T03:34:58.115Z,34.300
2023-03-02T03:36:57.929Z,34.200
2023-03-02T03:38:58.209Z,34.000
2023-03-02T03:39:57.935Z,34.000
2023-03-02T03:40:57.568Z,34.200
2023-03-02T03:41:58.260Z,32.000
2023-03-02T03:43:57.538Z,33.800
2023-03-02T03:44:58.143Z,34.200
2023-03-02T03:45:58.109Z,34.800
2023-03-02T03:46:57.766Z,35.300
2023-03-02T03:48:58.079Z,32.700
2023-03-02T03:52:19.309Z,33.400
2023-03-02T03:53:12.366Z,34.000
2023-03-02T03:54:12.325Z,33.400
2023-03-02T03:55:12.300Z,33.300
2023-03-02T03:56:12.162Z,34.200
2023-03-02T03:57:12.160Z,35.000
2023-03-02T03:58:12.177Z,33.200
2023-03-02T03:59:12.349Z,33.500
2023-03-02T04:00:12.525Z,31.700
2023-03-02T04:01:12.672Z,31.800
2023-03-02T04:02:12.898Z,35.900
2023-03-02T04:03:12.145Z,34.000
2023-03-02T04:04:12.233Z,34.400
2023-03-02T04:05:12.352Z,34.500
2023-03-02T04:06:12.394Z,33.900
2023-03-02T04:07:12.372Z,32.300
2023-03-02T04:08:12.308Z,33.600
2023-03-02T04:09:12.302Z,34.900
2023-03-02T04:10:12.231Z,33.600
2023-03-02T04:11:12.279Z,34.500
2023-03-02T04:12:12.150Z,33.200
2023-03-02T04:13:12.177Z,37.100
2023-03-02T04:14:12.158Z,32.800
2023-03-02T04:15:12.126Z,34.700
2023-03-02T04:16:13.006Z,34.300
2023-03-02T04:17:17.256Z,34.400
2023-03-02T04:18:18.023Z,35.000
2023-03-02T04:19:14.975Z,34.500
2023-03-02T04:20:11.912Z,34.700
2023-03-02T04:21:11.881Z,35.000
2023-03-02T04:22:12.119Z,35.700
2023-03-02T04:23:11.976Z,32.800
2023-03-02T04:24:11.954Z,35.600
2023-03-02T04:25:11.900Z,34.500
2023-03-02T04:26:11.770Z,36.600
2023-03-02T04:27:11.777Z,35.700
2023-03-02T04:28:12.771Z,35.700
2023-03-02T04:29:12.804Z,36.200
2023-03-02T04:30:12.765Z,37.200
2023-03-02T04:31:13.062Z,36.300
2023-03-02T04:32:12.264Z,35.300
2023-03-02T04:33:12.252Z,36.900
2023-03-02T04:34:12.170Z,34.400
2023-03-02T04:35:12.109Z,33.600
2023-03-02T04:36:12.162Z,36.000
2023-03-02T04:37:12.589Z,36.800
2023-03-02T04:38:12.520Z,37.200
2023-03-02T04:39:12.442Z,37.800
2023-03-02T04:40:12.348Z,37.900
2023-03-02T04:41:12.336Z,37.800
2023-03-02T04:42:12.381Z,37.000
2023-03-02T04:43:12.327Z,36.600
2023-03-02T04:44:12.297Z,36.100
2023-03-02T04:45:12.327Z,34.900
2023-03-02T04:46:12.297Z,36.800
2023-03-02T04:47:12.647Z,37.500
2023-03-02T04:48:11.996Z,37.500
2023-03-02T04:49:11.915Z,37.100
2023-03-02T04:50:11.823Z,35.300
2023-03-02T04:51:12.721Z,34.300
2023-03-02T04:52:12.701Z,35.300
2023-03-02T04:53:12.606Z,35.700
2023-03-02T04:54:12.558Z,34.400
2023-03-02T04:55:12.582Z,36.400
2023-03-02T04:56:12.553Z,37.000
2023-03-02T04:57:12.534Z,35.800
2023-03-02T04:58:12.540Z,34.400
2023-03-02T04:59:12.549Z,34.300
2023-03-02T05:00:12.505Z,35.300
2023-03-02T05:01:12.477Z,33.300
2023-03-02T05:02:12.537Z,35.300
2023-03-02T05:03:12.554Z,34.700
2023-03-02T05:04:12.534Z,34.400
2023-03-02T05:05:12.879Z,35.800
2023-03-02T05:06:11.830Z,35.800
2023-03-02T05:07:11.795Z,35.400
2023-03-02T05:08:12.756Z,33.800
2023-03-02T05:09:12.769Z,36.000
2023-03-02T05:10:12.834Z,33.800
2023-03-02T05:11:12.766Z,34.800
2023-03-02T05:12:12.619Z,33.400
2023-03-02T05:13:12.650Z,36.300
2023-03-02T05:14:12.544Z,35.500
2023-03-02T05:15:12.496Z,35.300
2023-03-02T05:16:12.644Z,34.900
2023-03-02T05:17:12.873Z,38.200
2023-03-02T05:18:11.848Z,35.500
2023-03-02T05:19:12.190Z,37.200
2023-03-02T05:20:12.113Z,36.400
2023-03-02T05:21:12.050Z,37.200
2023-03-02T05:22:12.243Z,36.600
2023-03-02T05:23:12.334Z,34.700
2023-03-02T05:24:12.185Z,36.700
2023-03-02T05:25:12.421Z,35.400
2023-03-02T05:26:12.477Z,36.100
2023-03-02T05:27:12.430Z,35.800
2023-03-02T05:28:12.393Z,34.200
2023-03-02T05:29:12.313Z,35.400
2023-03-02T05:30:12.329Z,34.600
2023-03-02T05:31:12.498Z,34.600
2023-03-02T05:32:12.939Z,31.800
2023-03-02T05:33:12.012Z,35.200
2023-03-02T05:34:11.941Z,31.600
2023-03-02T05:35:12.886Z,32.900
2023-03-02T05:36:13.080Z,32.200
2023-03-02T05:37:12.656Z,30.300
2023-03-02T05:38:12.717Z,31.100
2023-03-02T05:39:12.668Z,32.500
2023-03-02T05:40:12.674Z,29.700
2023-03-02T05:41:12.626Z,29.900
2023-03-02T05:42:12.624Z,28.700
2023-03-02T05:43:12.585Z,29.400
2023-03-02T05:44:12.531Z,29.300
2023-03-02T05:45:12.508Z,29.300
2023-03-02T05:46:12.484Z,30.600
2023-03-02T05:47:12.868Z,30.900
2023-03-02T05:48:11.934Z,31.100
2023-03-02T05:49:11.871Z,30.600
2023-03-02T05:50:11.852Z,29.100
2023-03-02T05:51:12.817Z,30.000
2023-03-02T05:52:12.719Z,29.900
2023-03-02T05:53:12.662Z,28.400
2023-03-02T05:54:12.598Z,29.900
2023-03-02T05:56:12.434Z,28.700
2023-03-02T05:57:12.380Z,28.600
2023-03-02T05:58:12.291Z,28.300
2023-03-02T05:59:12.261Z,29.600
2023-03-02T06:00:12.179Z,27.600
2023-03-02T06:01:15.125Z,28.000
2023-03-02T06:02:12.621Z,28.800
2023-03-02T06:03:12.754Z,27.700
2023-03-02T06:04:11.874Z,28.200
2023-03-02T06:05:11.769Z,27.500
2023-03-02T06:06:12.646Z,28.700
2023-03-02T06:07:12.145Z,28.200
2023-03-02T06:08:12.062Z,27.400
2023-03-02T06:09:12.157Z,27.700
2023-03-02T06:10:12.158Z,26.600
2023-03-02T06:11:12.124Z,27.800
2023-03-02T06:12:12.089Z,26.900
2023-03-02T06:13:12.097Z,27.800
2023-03-02T06:14:12.106Z,28.200
2023-03-02T06:15:12.221Z,26.600
2023-03-02T06:16:12.282Z,28.000
2023-03-02T06:18:12.775Z,29.100
2023-03-02T06:19:13.405Z,29.900
2023-03-02T06:20:12.311Z,29.200
2023-03-02T06:21:12.237Z,27.100
2023-03-02T06:22:12.321Z,27.300
2023-03-02T06:23:12.255Z,29.900
2023-03-02T06:24:12.249Z,31.200
2023-03-02T06:25:12.145Z,28.800
2023-03-02T06:26:12.173Z,29.200
2023-03-02T06:27:12.402Z,28.900
2023-03-02T06:28:12.306Z,30.700
2023-03-02T06:29:17.292Z,25.900
2023-03-02T06:30:12.245Z,27.000
2023-03-02T06:31:12.127Z,27.600
2023-03-02T06:32:12.438Z,27.300
2023-03-02T06:33:12.464Z,26.100
2023-03-02T06:34:12.339Z,27.800
2023-03-02T06:35:12.542Z,27.600
2023-03-02T06:36:13.188Z,27.400
2023-03-02T06:37:12.357Z,28.700
2023-03-02T06:38:12.284Z,25.700
2023-03-02T06:39:12.278Z,28.300
2023-03-02T06:40:12.346Z,27.000
2023-03-02T06:41:12.616Z,29.300
2023-03-02T06:42:12.668Z,28.100
2023-03-02T06:43:12.704Z,27.000
2023-03-02T06:44:12.640Z,26.800
2023-03-02T06:45:12.577Z,26.000
2023-03-02T06:46:12.821Z,26.500
2023-03-02T06:47:11.801Z,27.000
2023-03-02T06:48:12.974Z,27.500
2023-03-02T06:50:12.086Z,28.700
2023-03-02T06:51:12.015Z,29.500
2023-03-02T06:52:11.909Z,29.900
2023-03-02T06:53:11.863Z,27.400
2023-03-02T06:54:11.819Z,26.300
2023-03-02T06:55:12.750Z,27.000
2023-03-02T06:56:12.700Z,28.600
2023-03-02T06:57:12.951Z,28.000
2023-03-02T06:58:12.058Z,28.200
2023-03-02T06:59:12.068Z,27.000
2023-03-02T07:00:12.220Z,27.100
2023-03-02T07:01:12.422Z,27.800
2023-03-02T07:02:12.514Z,26.700
2023-03-02T07:03:12.535Z,26.600
2023-03-02T07:04:12.572Z,27.300
2023-03-02T07:05:12.516Z,27.000
2023-03-02T07:06:12.633Z,27.100
2023-03-02T07:07:12.545Z,28.500
2023-03-02T07:08:12.512Z,25.500
2023-03-02T07:09:12.425Z,26.900
2023-03-02T07:10:12.342Z,26.900
2023-03-02T07:11:12.333Z,27.100
2023-03-02T07:12:12.257Z,26.500
2023-03-02T07:13:12.337Z,27.300
2023-03-02T07:14:12.348Z,27.000
2023-03-02T07:15:12.439Z,26.100
2023-03-02T07:16:12.590Z,26.000
2023-03-02T07:17:12.798Z,26.600
2023-03-02T07:18:12.804Z,27.900
2023-03-02T07:19:12.772Z,25.900
2023-03-02T07:20:14.162Z,28.000
2023-03-02T07:21:12.129Z,29.100
2023-03-02T07:22:12.049Z,27.800
2023-03-02T07:23:12.000Z,25.800
2023-03-02T07:24:11.963Z,27.100
2023-03-02T07:25:11.870Z,27.500
2023-03-02T07:26:11.856Z,28.600
2023-03-02T07:27:12.818Z,27.600
2023-03-02T07:28:12.750Z,26.200
2023-03-02T07:29:12.724Z,26.200
2023-03-02T07:30:12.691Z,26.100
2023-03-02T07:31:12.742Z,25.700
2023-03-02T07:32:14.493Z,26.500
2023-03-02T07:33:12.646Z,26.100
2023-03-02T07:34:12.684Z,27.800
2023-03-02T07:35:12.645Z,25.800
2023-03-02T07:36:12.820Z,23.300
2023-03-02T07:37:12.700Z,25.000
2023-03-02T07:38:12.729Z,24.700
2023-03-02T07:39:12.710Z,26.100
2023-03-02T07:40:12.638Z,25.400
2023-03-02T07:41:12.601Z,26.200
2023-03-02T07:42:12.513Z,25.100
2023-03-02T07:43:12.495Z,24.500
2023-03-02T07:44:12.450Z,23.600
2023-03-02T07:45:12.405Z,24.200
2023-03-02T07:46:12.496Z,24.700
2023-03-02T07:47:12.586Z,25.000
2023-03-02T07:48:12.537Z,25.900
2023-03-02T07:49:12.494Z,24.700
2023-03-02T07:50:12.446Z,24.600
2023-03-02T07:51:12.372Z,23.700
2023-03-02T07:52:12.278Z,28.100
2023-03-02T07:53:12.151Z,24.900
2023-03-02T07:54:12.073Z,24.400
2023-03-02T07:55:12.007Z,25.400
2023-03-02T07:56:11.951Z,25.300
2023-03-02T07:57:11.890Z,26.000
2023-03-02T07:58:11.799Z,23.600
2023-03-02T07:59:12.838Z,25.900
2023-03-02T08:00:11.805Z,25.000
2023-03-02T08:01:12.744Z,24.900
2023-03-02T08:02:13.149Z,24.300
2023-03-02T08:03:12.571Z,22.700
2023-03-02T08:04:12.569Z,25.300
2023-03-02T08:05:12.652Z,24.400
2023-03-02T08:06:12.666Z,24.700
2023-03-02T08:07:12.658Z,23.900
2023-03-02T08:08:12.811Z,24.000
2023-03-02T08:09:13.258Z,24.400
2023-03-02T08:10:12.765Z,25.700
2023-03-02T08:11:12.733Z,25.800
2023-03-02T08:12:12.729Z,25.600
2023-03-02T08:13:12.691Z,25.500
2023-03-02T08:14:12.645Z,25.400
2023-03-02T08:15:12.611Z,24.200
2023-03-02T08:16:12.807Z,23.000
2023-03-02T08:17:11.927Z,24.800
2023-03-02T08:18:11.835Z,23.900
2023-03-02T08:19:15.586Z,22.900
2023-03-02T08:20:12.631Z,23.000
2023-03-02T08:21:12.594Z,22.500
2023-03-02T08:22:13.663Z,23.700
2023-03-02T08:23:12.690Z,24.400
2023-03-02T08:24:12.811Z,24.100
2023-03-02T08:25:12.697Z,24.200
2023-03-02T08:26:17.359Z,25.300
2023-03-02T08:27:12.608Z,24.700
2023-03-02T08:28:12.626Z,24.800
2023-03-02T08:29:12.570Z,23.500
2023-03-02T08:30:12.593Z,23.600
2023-03-02T08:31:12.738Z,23.900
2023-03-02T08:32:13.275Z,23.100
2023-03-02T08:33:12.429Z,23.600
2023-03-02T08:34:12.421Z,22.400
2023-03-02T08:35:12.454Z,23.300
2023-03-02T08:36:12.693Z,23.500
2023-03-02T08:37:12.679Z,24.100
2023-03-02T08:38:12.643Z,25.400
2023-03-02T08:39:12.709Z,23.000
2023-03-02T08:40:14.964Z,23.600
2023-03-02T08:41:11.976Z,24.000
2023-03-02T08:42:12.116Z,24.500
2023-03-02T08:43:12.074Z,24.100
2023-03-02T08:44:12.218Z,24.800
2023-03-02T08:45:12.338Z,23.700
2023-03-02T08:46:12.512Z,24.800
2023-03-02T08:47:12.445Z,24.400
2023-03-02T08:48:12.415Z,23.700
2023-03-02T08:49:12.486Z,23.400
2023-03-02T08:50:12.462Z,27.500
2023-03-02T08:51:12.391Z,23.900
2023-03-02T08:52:12.364Z,25.100
2023-03-02T08:53:12.326Z,25.000
2023-03-02T08:54:12.324Z,24.600
2023-03-02T08:55:12.659Z,23.400
2023-03-02T08:56:12.803Z,24.000
2023-03-02T08:57:13.002Z,23.500
2023-03-02T08:58:11.972Z,24.800
2023-03-02T08:59:11.937Z,24.400
2023-03-02T09:00:11.978Z,25.600
2023-03-02T09:01:12.121Z,24.400
2023-03-02T09:02:12.815Z,24.200
2023-03-02T09:03:12.746Z,22.100
2023-03-02T09:04:12.913Z,24.400
2023-03-02T09:05:12.314Z,24.600
2023-03-02T09:06:12.273Z,22.600
2023-03-02T09:07:12.153Z,23.000
2023-03-02T09:08:12.117Z,22.800
2023-03-02T09:09:12.112Z,23.900
2023-03-02T09:10:12.172Z,22.600
2023-03-02T09:11:12.099Z,21.400
2023-03-02T09:12:12.035Z,24.200
2023-03-02T09:13:12.002Z,23.800
2023-03-02T09:14:11.962Z,23.000
2023-03-02T09:15:12.003Z,22.500
2023-03-02T09:16:12.093Z,23.000
2023-03-02T09:17:12.433Z,22.200
2023-03-02T09:18:12.310Z,21.300
2023-03-02T09:19:12.314Z,23.100
2023-03-02T09:20:12.298Z,22.500
2023-03-02T09:21:12.257Z,21.800
2023-03-02T09:22:12.201Z,22.300
2023-03-02T09:23:12.079Z,23.100
2023-03-02T09:24:12.242Z,23.200
2023-03-02T09:25:12.272Z,23.000
2023-03-02T09:26:12.167Z,21.000
2023-03-02T09:27:12.144Z,22.100
2023-03-02T09:28:12.105Z,21.500
2023-03-02T09:29:12.173Z,22.300
2023-03-02T09:30:12.086Z,22.500
2023-03-02T09:31:12.112Z,22.300
2023-03-02T09:32:13.437Z,21.600
2023-03-02T09:33:13.116Z,21.800
2023-03-02T09:34:12.116Z,21.800
2023-03-02T09:35:12.095Z,21.400
2023-03-02T09:36:12.032Z,22.600
2023-03-02T09:37:11.993Z,20.900
2023-03-02T09:38:12.206Z,20.100
2023-03-02T09:39:12.290Z,20.200
2023-03-02T09:40:12.398Z,21.300
2023-03-02T09:41:12.378Z,20.500
2023-03-02T09:42:12.395Z,20.500
2023-03-02T09:43:17.238Z,20.500
2023-03-02T09:44:12.255Z,20.000
2023-03-02T09:46:12.508Z,21.200
2023-03-02T09:47:12.474Z,19.900
2023-03-02T09:48:12.599Z,18.700
2023-03-02T09:49:12.578Z,19.600
2023-03-02T09:50:12.492Z,19.600
2023-03-02T09:51:12.358Z,19.400
2023-03-02T09:52:12.349Z,20.200
2023-03-02T09:53:12.329Z,19.900
2023-03-02T09:54:12.433Z,19.600
2023-03-02T09:55:12.458Z,20.600
2023-03-02T09:56:12.513Z,21.200
2023-03-02T09:57:12.493Z,19.700
2023-03-02T09:58:12.432Z,18.900
2023-03-02T09:59:12.453Z,18.200
2023-03-02T10:00:20.372Z,19.300
2023-03-02T10:01:13.409Z,19.600
2023-03-02T10:02:12.908Z,20.200
2023-03-02T10:03:19.188Z,19.300
2023-03-02T10:04:12.836Z,21.800
2023-03-02T10:05:11.973Z,19.500
2023-03-02T10:06:11.997Z,19.800
2023-03-02T10:07:11.917Z,19.100
2023-03-02T10:08:13.232Z,19.900
2023-03-02T10:09:12.246Z,19.400
2023-03-02T10:10:12.171Z,19.400
2023-03-02T10:11:12.212Z,19.900
2023-03-02T10:12:12.200Z,18.700
2023-03-02T10:13:12.171Z,18.900
2023-03-02T10:14:12.184Z,18.900
2023-03-02T10:15:12.274Z,19.200
2023-03-02T10:16:12.441Z,19.100
2023-03-02T10:17:13.157Z,20.300
2023-03-02T10:18:12.139Z,19.000
2023-03-02T10:19:12.363Z,19.700
2023-03-02T10:20:12.349Z,18.000
2023-03-02T10:21:12.357Z,18.700
2023-03-02T10:22:12.315Z,18.000
2023-03-02T10:23:12.333Z,17.000
2023-03-02T10:24:12.322Z,18.400
2023-03-02T10:25:12.322Z,19.800
2023-03-02T10:26:12.280Z,18.800
2023-03-02T10:27:12.258Z,18.900
2023-03-02T10:28:12.471Z,18.900
2023-03-02T10:29:12.529Z,17.600
2023-03-02T10:30:12.498Z,19.200
2023-03-02T10:31:12.745Z,19.400
2023-03-02T10:32:11.936Z,19.200
2023-03-02T10:33:11.990Z,19.300
2023-03-02T10:34:11.953Z,20.600
2023-03-02T10:35:12.002Z,20.400
2023-03-02T10:36:12.375Z,19.900
2023-03-02T10:37:12.764Z,19.700
2023-03-02T10:38:12.704Z,19.300
2023-03-02T10:39:12.675Z,20.800
2023-03-02T10:40:12.677Z,19.200
2023-03-02T10:41:12.633Z,19.300
2023-03-02T10:42:12.746Z,19.500
2023-03-02T10:43:12.762Z,18.900
2023-03-02T10:44:12.701Z,18.600
2023-03-02T10:45:12.687Z,19.000
2023-03-02T10:46:12.960Z,19.500
2023-03-02T10:48:12.355Z,18.200
2023-03-02T10:49:21.825Z,18.200
2023-03-02T10:50:12.722Z,17.900
2023-03-02T10:51:12.760Z,17.600
2023-03-02T10:52:12.833Z,17.100
2023-03-02T10:53:20.401Z,17.800
2023-03-02T10:54:12.406Z,16.700
2023-03-02T10:55:12.388Z,16.100
2023-03-02T10:56:12.285Z,16.400
2023-03-02T10:57:12.293Z,17.200
2023-03-02T10:58:12.217Z,17.100
2023-03-02T10:59:14.450Z,16.600
2023-03-02T11:00:12.428Z,15.500
2023-03-02T11:01:12.468Z,15.700
2023-03-02T11:02:12.526Z,15.700
2023-03-02T11:03:12.517Z,14.900
2023-03-02T11:04:12.581Z,16.400
2023-03-02T11:05:15.405Z,16.200
2023-03-02T11:06:12.492Z,15.900
2023-03-02T11:07:12.582Z,16.000
2023-03-02T11:08:12.487Z,15.600
2023-03-02T11:09:12.459Z,15.500
2023-03-02T11:10:12.398Z,15.700
2023-03-02T11:11:17.840Z,15.200
2023-03-02T11:12:12.453Z,14.900
2023-03-02T11:13:12.495Z,16.100
2023-03-02T11:14:12.466Z,15.600
2023-03-02T11:15:12.461Z,14.600
2023-03-02T11:16:12.594Z,15.300
2023-03-02T11:17:12.806Z,14.700
2023-03-02T11:18:11.845Z,15.400
2023-03-02T11:19:11.805Z,15.500
2023-03-02T11:20:12.741Z,14.800
2023-03-02T11:21:12.690Z,16.200
2023-03-02T11:22:12.680Z,14.700
2023-03-02T11:23:12.633Z,15.500
2023-03-02T11:24:12.707Z,15.400
2023-03-02T11:25:12.629Z,14.900
2023-03-02T11:26:12.580Z,15.700
2023-03-02T11:27:12.546Z,15.300
2023-03-02T11:28:12.540Z,15.400
2023-03-02T11:29:12.578Z,15.700
2023-03-02T11:30:12.508Z,14.500
2023-03-02T11:31:12.673Z,15.100
2023-03-02T11:32:13.562Z,15.500
2023-03-02T11:33:12.843Z,16.100
2023-03-02T11:34:20.043Z,15.800
2023-03-02T11:35:12.235Z,14.400
2023-03-02T11:36:12.177Z,14.500
2023-03-02T11:37:12.347Z,14.600
2023-03-02T11:38:12.262Z,16.000
2023-03-02T11:39:12.196Z,15.200
2023-03-02T11:41:11.814Z,15.800
2023-03-02T11:42:12.981Z,15.600
2023-03-02T11:43:12.139Z,14.600
2023-03-02T11:44:12.042Z,14.500
2023-03-02T11:45:12.631Z,14.400
2023-03-02T11:46:22.015Z,15.700
2023-03-02T11:48:20.250Z,13.800
2023-03-02T11:49:14.198Z,15.100
2023-03-02T11:50:14.129Z,15.300
2023-03-02T11:51:14.157Z,15.400
2023-03-02T11:52:19.049Z,15.900
2023-03-02T11:53:14.099Z,16.000
2023-03-02T11:54:14.328Z,14.900
2023-03-02T11:55:14.405Z,14.800
2023-03-02T11:56:14.497Z,14.300
2023-03-02T11:57:14.501Z,13.900
2023-03-02T11:58:15.568Z,14.900
2023-03-02T11:59:14.592Z,14.800
2023-03-02T12:00:14.817Z,13.800
2023-03-02T12:01:14.932Z,14.700
2023-03-02T12:02:14.691Z,15.200
2023-03-02T12:03:13.985Z,15.500
2023-03-02T12:04:14.015Z,15.300
2023-03-02T12:05:14.105Z,15.300
2023-03-02T12:06:14.109Z,14.600
2023-03-02T12:07:14.054Z,14.600
2023-03-02T12:08:13.986Z,14.000
2023-03-02T12:09:14.074Z,14.700
2023-03-02T12:10:14.370Z,14.300
2023-03-02T12:11:14.422Z,15.400
2023-03-02T12:12:14.438Z,15.200
2023-03-02T12:13:14.384Z,13.500
2023-03-02T12:14:14.407Z,13.700
2023-03-02T12:15:14.282Z,13.500
2023-03-02T12:16:14.261Z,14.000
2023-03-02T12:17:15.480Z,14.700
2023-03-02T12:18:14.586Z,14.800
2023-03-02T12:19:14.560Z,15.300
2023-03-02T12:20:14.586Z,14.200
2023-03-02T12:21:14.454Z,14.000
2023-03-02T12:22:14.369Z,14.700
2023-03-02T12:23:15.622Z,15.200
2023-03-02T12:24:14.593Z,14.900
2023-03-02T12:25:14.578Z,14.400
2023-03-02T12:26:14.439Z,14.800
2023-03-02T12:27:14.424Z,14.200
2023-03-02T12:28:14.517Z,14.400
2023-03-02T12:29:16.019Z,14.100
2023-03-02T12:30:14.108Z,13.900
2023-03-02T12:31:14.169Z,14.000
2023-03-02T12:32:14.684Z,13.400
2023-03-02T12:33:14.775Z,13.200
2023-03-02T12:34:14.676Z,12.800
2023-03-02T12:35:14.677Z,12.900
2023-03-02T12:36:14.774Z,12.100
2023-03-02T12:37:14.862Z,10.500
2023-03-02T12:38:15.070Z,11.600
2023-03-02T12:39:14.191Z,10.800
2023-03-02T12:40:14.094Z,11.400
2023-03-02T12:41:14.041Z,12.400
2023-03-02T12:42:14.098Z,10.900
2023-03-02T12:43:14.290Z,11.900
2023-03-02T12:44:14.431Z,11.500
2023-03-02T12:45:14.639Z,11.300
2023-03-02T12:46:14.905Z,11.800
2023-03-02T12:47:15.004Z,12.300
2023-03-02T12:48:14.888Z,12.800
2023-03-02T12:50:13.824Z,13.100
2023-03-02T12:51:13.871Z,12.700
2023-03-02T12:52:14.534Z,12.000
2023-03-02T12:53:14.590Z,10.700
2023-03-02T12:54:14.566Z,10.100